Terminal Aerodrome Forecast
Issued by NWS

Home | Current Version | Previous Version | Text Only | Print | Product List | Glossary On
Versions: 1 2 3 4 5 6 7 8 9 10 11 12 13 14 15 16 17 18
000
FTUS45 KRIW 010500
TAFCPR
TAF
KCPR 010531Z 0106/0206 25007KT P6SM VCSH SCT050 BKN100
     FM011500 36008KT P6SM VCSH OVC030
     FM011800 01010KT P6SM VCSH SCT020 BKN040
     FM020100 33007KT P6SM VCSH BKN050=

USA.gov is the U.S. government's official web portal to all federal, state and local government web resources and services.